sensor_id;sensor_type;location;lat;lon;timestamp;temperature;humidity
9425;DHT22;17139;52.140;11.636;2023-05-23T00:00:32;18.30;46.40
9425;DHT22;17139;52.140;11.636;2023-05-23T00:03:01;18.40;47.70
9425;DHT22;17139;52.140;11.636;2023-05-23T00:05:29;18.30;46.60
9425;DHT22;17139;52.140;11.636;2023-05-23T00:07:56;18.10;46.40
9425;DHT22;17139;52.140;11.636;2023-05-23T00:10:23;18.50;48.60
9425;DHT22;17139;52.140;11.636;2023-05-23T00:12:50;18.40;46.70
9425;DHT22;17139;52.140;11.636;2023-05-23T00:15:17;18.20;46.70
9425;DHT22;17139;52.140;11.636;2023-05-23T00:17:45;18.00;46.70
9425;DHT22;17139;52.140;11.636;2023-05-23T00:20:12;17.90;46.90
9425;DHT22;17139;52.140;11.636;2023-05-23T00:22:40;17.90;46.90
9425;DHT22;17139;52.140;11.636;2023-05-23T00:25:08;17.80;46.90
9425;DHT22;17139;52.140;11.636;2023-05-23T00:27:35;17.80;46.90
9425;DHT22;17139;52.140;11.636;2023-05-23T00:30:03;18.70;49.60
9425;DHT22;17139;52.140;11.636;2023-05-23T00:32:30;18.40;47.40
9425;DHT22;17139;52.140;11.636;2023-05-23T00:34:59;18.10;47.20
9425;DHT22;17139;52.140;11.636;2023-05-23T00:37:26;17.90;47.40
9425;DHT22;17139;52.140;11.636;2023-05-23T00:39:53;17.80;47.40
9425;DHT22;17139;52.140;11.636;2023-05-23T00:42:20;17.70;47.30
9425;DHT22;17139;52.140;11.636;2023-05-23T00:44:47;17.70;47.20
9425;DHT22;17139;52.140;11.636;2023-05-23T00:47:14;17.70;47.20
9425;DHT22;17139;52.140;11.636;2023-05-23T00:49:41;17.80;48.00
9425;DHT22;17139;52.140;11.636;2023-05-23T00:52:10;17.70;47.20
9425;DHT22;17139;52.140;11.636;2023-05-23T00:54:38;17.60;47.10
9425;DHT22;17139;52.140;11.636;2023-05-23T00:57:06;17.50;47.10
9425;DHT22;17139;52.140;11.636;2023-05-23T00:59:35;17.40;47.10
9425;DHT22;17139;52.140;11.636;2023-05-23T01:02:03;17.30;47.20
9425;DHT22;17139;52.140;11.636;2023-05-23T01:04:31;17.30;47.20
9425;DHT22;17139;52.140;11.636;2023-05-23T01:06:58;17.90;49.60
9425;DHT22;17139;52.140;11.636;2023-05-23T01:09:28;18.40;49.70
9425;DHT22;17139;52.140;11.636;2023-05-23T01:12:02;18.00;47.90
9425;DHT22;17139;52.140;11.636;2023-05-23T01:14:39;17.70;47.90
9425;DHT22;17139;52.140;11.636;2023-05-23T01:17:12;17.60;48.00
9425;DHT22;17139;52.140;11.636;2023-05-23T01:19:58;17.50;48.00
9425;DHT22;17139;52.140;11.636;2023-05-23T01:22:40;17.50;48.00
9425;DHT22;17139;52.140;11.636;2023-05-23T01:25:36;18.00;50.00
9425;DHT22;17139;52.140;11.636;2023-05-23T01:28:08;17.80;48.20
9425;DHT22;17139;52.140;11.636;2023-05-23T01:30:39;17.60;49.10
9425;DHT22;17139;52.140;11.636;2023-05-23T01:33:07;17.50;48.40
9425;DHT22;17139;52.140;11.636;2023-05-23T01:35:34;17.30;48.20
9425;DHT22;17139;52.140;11.636;2023-05-23T01:38:02;17.20;48.20
9425;DHT22;17139;52.140;11.636;2023-05-23T01:40:29;17.20;48.20
9425;DHT22;17139;52.140;11.636;2023-05-23T01:42:56;17.20;48.20
9425;DHT22;17139;52.140;11.636;2023-05-23T01:45:26;17.10;48.30
9425;DHT22;17139;52.140;11.636;2023-05-23T01:47:55;17.10;48.50
9425;DHT22;17139;52.140;11.636;2023-05-23T01:50:23;18.00;51.10
9425;DHT22;17139;52.140;11.636;2023-05-23T01:52:51;17.70;48.80
9425;DHT22;17139;52.140;11.636;2023-05-23T01:55:20;17.60;48.70
9425;DHT22;17139;52.140;11.636;2023-05-23T01:57:50;17.40;48.70
9425;DHT22;17139;52.140;11.636;2023-05-23T02:00:17;17.30;48.70
9425;DHT22;17139;52.140;11.636;2023-05-23T02:02:46;17.20;48.70
9425;DHT22;17139;52.140;11.636;2023-05-23T02:05:13;17.10;48.60
9425;DHT22;17139;52.140;11.636;2023-05-23T02:07:40;17.10;48.70
9425;DHT22;17139;52.140;11.636;2023-05-23T02:10:08;17.20;49.40
9425;DHT22;17139;52.140;11.636;2023-05-23T02:12:35;17.10;48.70
9425;DHT22;17139;52.140;11.636;2023-05-23T02:15:02;17.10;48.60
9425;DHT22;17139;52.140;11.636;2023-05-23T02:17:30;17.10;48.60
9425;DHT22;17139;52.140;11.636;2023-05-23T02:19:58;17.00;48.50
9425;DHT22;17139;52.140;11.636;2023-05-23T02:22:25;17.00;48.50
9425;DHT22;17139;52.140;11.636;2023-05-23T02:24:53;16.90;48.50
9425;DHT22;17139;52.140;11.636;2023-05-23T02:27:20;17.50;51.60
9425;DHT22;17139;52.140;11.636;2023-05-23T02:29:47;17.90;51.60
9425;DHT22;17139;52.140;11.636;2023-05-23T02:32:14;17.50;49.50
9425;DHT22;17139;52.140;11.636;2023-05-23T02:34:41;17.20;49.30
9425;DHT22;17139;52.140;11.636;2023-05-23T02:37:13;17.00;49.50
9425;DHT22;17139;52.140;11.636;2023-05-23T02:39:40;16.90;49.60
9425;DHT22;17139;52.140;11.636;2023-05-23T02:42:07;16.80;49.60
9425;DHT22;17139;52.140;11.636;2023-05-23T02:44:34;16.90;51.30
9425;DHT22;17139;52.140;11.636;2023-05-23T02:47:01;17.30;51.80
9425;DHT22;17139;52.140;11.636;2023-05-23T02:49:28;17.10;50.00
9425;DHT22;17139;52.140;11.636;2023-05-23T02:51:55;16.90;49.70
9425;DHT22;17139;52.140;11.636;2023-05-23T02:54:23;16.70;49.70
9425;DHT22;17139;52.140;11.636;2023-05-23T02:56:50;16.70;49.90
9425;DHT22;17139;52.140;11.636;2023-05-23T02:59:19;16.60;49.90
9425;DHT22;17139;52.140;11.636;2023-05-23T03:01:47;16.60;49.90
9425;DHT22;17139;52.140;11.636;2023-05-23T03:04:14;16.60;49.90
9425;DHT22;17139;52.140;11.636;2023-05-23T03:06:41;16.60;49.80
9425;DHT22;17139;52.140;11.636;2023-05-23T03:09:08;17.10;52.30
9425;DHT22;17139;52.140;11.636;2023-05-23T03:11:37;17.00;50.20
9425;DHT22;17139;52.140;11.636;2023-05-23T03:14:04;16.80;50.00
9425;DHT22;17139;52.140;11.636;2023-05-23T03:16:31;16.70;50.00
9425;DHT22;17139;52.140;11.636;2023-05-23T03:18:58;16.60;49.90
9425;DHT22;17139;52.140;11.636;2023-05-23T03:21:26;16.50;49.90
9425;DHT22;17139;52.140;11.636;2023-05-23T03:23:53;16.40;49.90
9425;DHT22;17139;52.140;11.636;2023-05-23T03:26:20;16.30;49.90
9425;DHT22;17139;52.140;11.636;2023-05-23T03:28:48;17.00;53.10
9425;DHT22;17139;52.140;11.636;2023-05-23T03:31:15;16.80;50.80
9425;DHT22;17139;52.140;11.636;2023-05-23T03:33:42;16.60;50.60
9425;DHT22;17139;52.140;11.636;2023-05-23T03:36:10;16.50;50.40
9425;DHT22;17139;52.140;11.636;2023-05-23T03:38:37;16.40;50.40
9425;DHT22;17139;52.140;11.636;2023-05-23T03:41:04;16.40;50.40
9425;DHT22;17139;52.140;11.636;2023-05-23T03:43:31;16.30;50.40
9425;DHT22;17139;52.140;11.636;2023-05-23T03:45:59;16.30;50.30
9425;DHT22;17139;52.140;11.636;2023-05-23T03:48:26;16.30;50.40
9425;DHT22;17139;52.140;11.636;2023-05-23T03:50:55;16.30;50.30
9425;DHT22;17139;52.140;11.636;2023-05-23T03:53:21;16.30;50.30
9425;DHT22;17139;52.140;11.636;2023-05-23T03:55:48;16.30;50.20
9425;DHT22;17139;52.140;11.636;2023-05-23T03:58:18;16.30;50.10
9425;DHT22;17139;52.140;11.636;2023-05-23T04:00:45;16.30;50.10
9425;DHT22;17139;52.140;11.636;2023-05-23T04:03:15;16.20;50.00
9425;DHT22;17139;52.140;11.636;2023-05-23T04:05:42;16.80;53.40
9425;DHT22;17139;52.140;11.636;2023-05-23T04:08:09;16.70;51.00
9425;DHT22;17139;52.140;11.636;2023-05-23T04:10:36;16.50;50.70
9425;DHT22;17139;52.140;11.636;2023-05-23T04:13:03;17.40;53.90
9425;DHT22;17139;52.140;11.636;2023-05-23T04:15:31;17.10;51.40
9425;DHT22;17139;52.140;11.636;2023-05-23T04:17:58;16.90;51.20
9425;DHT22;17139;52.140;11.636;2023-05-23T04:20:30;16.80;51.20
9425;DHT22;17139;52.140;11.636;2023-05-23T04:22:57;16.70;51.00
9425;DHT22;17139;52.140;11.636;2023-05-23T04:25:24;17.60;54.00
9425;DHT22;17139;52.140;11.636;2023-05-23T04:27:51;17.70;53.70
9425;DHT22;17139;52.140;11.636;2023-05-23T04:30:20;18.00;53.90
9425;DHT22;17139;52.140;11.636;2023-05-23T04:32:47;17.60;52.00
9425;DHT22;17139;52.140;11.636;2023-05-23T04:35:14;17.40;51.90
9425;DHT22;17139;52.140;11.636;2023-05-23T04:37:43;17.10;51.60
9425;DHT22;17139;52.140;11.636;2023-05-23T04:40:11;17.00;51.60
9425;DHT22;17139;52.140;11.636;2023-05-23T04:42:39;16.90;51.70
9425;DHT22;17139;52.140;11.636;2023-05-23T04:45:08;16.80;51.60
9425;DHT22;17139;52.140;11.636;2023-05-23T04:47:36;16.80;52.20
9425;DHT22;17139;52.140;11.636;2023-05-23T04:50:03;16.70;51.30
9425;DHT22;17139;52.140;11.636;2023-05-23T04:52:30;16.70;51.40
9425;DHT22;17139;52.140;11.636;2023-05-23T04:55:00;16.60;51.40
9425;DHT22;17139;52.140;11.636;2023-05-23T04:57:27;16.70;51.40
9425;DHT22;17139;52.140;11.636;2023-05-23T04:59:54;16.70;51.30
9425;DHT22;17139;52.140;11.636;2023-05-23T05:02:21;17.60;54.30
9425;DHT22;17139;52.140;11.636;2023-05-23T05:04:51;17.30;51.90
9425;DHT22;17139;52.140;11.636;2023-05-23T05:07:18;17.20;51.90
9425;DHT22;17139;52.140;11.636;2023-05-23T05:09:45;17.10;51.70
9425;DHT22;17139;52.140;11.636;2023-05-23T05:12:13;17.00;51.80
9425;DHT22;17139;52.140;11.636;2023-05-23T05:14:40;17.00;51.80
9425;DHT22;17139;52.140;11.636;2023-05-23T05:17:07;17.00;51.60
9425;DHT22;17139;52.140;11.636;2023-05-23T05:19:34;17.00;51.60
9425;DHT22;17139;52.140;11.636;2023-05-23T05:22:01;16.90;51.60
9425;DHT22;17139;52.140;11.636;2023-05-23T05:24:29;17.10;52.70
9425;DHT22;17139;52.140;11.636;2023-05-23T05:26:57;17.50;53.50
9425;DHT22;17139;52.140;11.636;2023-05-23T05:29:25;17.40;51.90
9425;DHT22;17139;52.140;11.636;2023-05-23T05:31:53;17.20;51.60
9425;DHT22;17139;52.140;11.636;2023-05-23T05:34:20;16.80;51.40
9425;DHT22;17139;52.140;11.636;2023-05-23T05:36:47;16.60;51.60
9425;DHT22;17139;52.140;11.636;2023-05-23T05:39:14;16.30;51.80
9425;DHT22;17139;52.140;11.636;2023-05-23T05:41:41;16.20;52.00
9425;DHT22;17139;52.140;11.636;2023-05-23T05:44:09;16.60;54.40
9425;DHT22;17139;52.140;11.636;2023-05-23T05:46:37;16.40;52.30
9425;DHT22;17139;52.140;11.636;2023-05-23T05:49:04;16.20;52.10
9425;DHT22;17139;52.140;11.636;2023-05-23T05:51:31;16.00;51.80
9425;DHT22;17139;52.140;11.636;2023-05-23T05:53:58;15.90;51.80
9425;DHT22;17139;52.140;11.636;2023-05-23T05:56:25;15.90;51.80
9425;DHT22;17139;52.140;11.636;2023-05-23T05:58:52;15.80;51.70
9425;DHT22;17139;52.140;11.636;2023-05-23T06:01:19;15.80;51.60
9425;DHT22;17139;52.140;11.636;2023-05-23T06:03:48;15.80;51.60
9425;DHT22;17139;52.140;11.636;2023-05-23T06:06:15;15.80;51.50
9425;DHT22;17139;52.140;11.636;2023-05-23T06:08:42;16.40;53.00
9425;DHT22;17139;52.140;11.636;2023-05-23T06:11:09;17.10;52.90
9425;DHT22;17139;52.140;11.636;2023-05-23T06:13:36;16.70;51.40
9425;DHT22;17139;52.140;11.636;2023-05-23T06:16:04;16.30;52.00
9425;DHT22;17139;52.140;11.636;2023-05-23T06:18:31;16.10;51.40
9425;DHT22;17139;52.140;11.636;2023-05-23T06:21:00;16.00;51.40
9425;DHT22;17139;52.140;11.636;2023-05-23T06:23:27;15.90;51.40
9425;DHT22;17139;52.140;11.636;2023-05-23T06:25:54;15.90;51.50
9425;DHT22;17139;52.140;11.636;2023-05-23T06:28:21;16.70;53.60
9425;DHT22;17139;52.140;11.636;2023-05-23T06:30:48;17.30;52.90
9425;DHT22;17139;52.140;11.636;2023-05-23T06:33:15;16.80;51.50
9425;DHT22;17139;52.140;11.636;2023-05-23T06:35:42;16.50;51.60
9425;DHT22;17139;52.140;11.636;2023-05-23T06:38:10;16.30;51.80
9425;DHT22;17139;52.140;11.636;2023-05-23T06:40:37;16.20;51.90
9425;DHT22;17139;52.140;11.636;2023-05-23T06:43:04;16.10;51.80
9425;DHT22;17139;52.140;11.636;2023-05-23T06:45:31;16.40;52.60
9425;DHT22;17139;52.140;11.636;2023-05-23T06:48:00;16.40;51.70
9425;DHT22;17139;52.140;11.636;2023-05-23T06:50:27;16.60;52.60
9425;DHT22;17139;52.140;11.636;2023-05-23T06:52:54;16.50;51.50
9425;DHT22;17139;52.140;11.636;2023-05-23T06:55:23;16.30;51.20
9425;DHT22;17139;52.140;11.636;2023-05-23T06:57:51;16.30;51.20
9425;DHT22;17139;52.140;11.636;2023-05-23T07:00:21;16.20;51.30
9425;DHT22;17139;52.140;11.636;2023-05-23T07:02:48;16.10;51.30
9425;DHT22;17139;52.140;11.636;2023-05-23T07:05:15;16.10;51.50
9425;DHT22;17139;52.140;11.636;2023-05-23T07:07:43;16.10;51.20
9425;DHT22;17139;52.140;11.636;2023-05-23T07:10:10;16.30;51.40
9425;DHT22;17139;52.140;11.636;2023-05-23T07:12:39;16.40;51.00
9425;DHT22;17139;52.140;11.636;2023-05-23T07:15:07;16.40;50.90
9425;DHT22;17139;52.140;11.636;2023-05-23T07:17:34;16.50;50.90
9425;DHT22;17139;52.140;11.636;2023-05-23T07:20:01;16.70;50.70
9425;DHT22;17139;52.140;11.636;2023-05-23T07:22:29;16.70;50.60
9425;DHT22;17139;52.140;11.636;2023-05-23T07:24:56;16.80;50.60
9425;DHT22;17139;52.140;11.636;2023-05-23T07:27:23;17.10;51.20
9425;DHT22;17139;52.140;11.636;2023-05-23T07:29:51;17.50;50.90
9425;DHT22;17139;52.140;11.636;2023-05-23T07:32:19;17.50;50.20
9425;DHT22;17139;52.140;11.636;2023-05-23T07:34:46;17.50;50.10
9425;DHT22;17139;52.140;11.636;2023-05-23T07:37:13;17.60;50.00
9425;DHT22;17139;52.140;11.636;2023-05-23T07:39:40;17.70;50.00
9425;DHT22;17139;52.140;11.636;2023-05-23T07:42:08;17.70;50.00
9425;DHT22;17139;52.140;11.636;2023-05-23T07:44:34;17.70;49.90
9425;DHT22;17139;52.140;11.636;2023-05-23T07:47:04;18.60;49.90
9425;DHT22;17139;52.140;11.636;2023-05-23T07:49:31;18.30;49.60
9425;DHT22;17139;52.140;11.636;2023-05-23T07:51:58;18.80;50.10
9425;DHT22;17139;52.140;11.636;2023-05-23T07:54:25;18.40;49.50
9425;DHT22;17139;52.140;11.636;2023-05-23T07:56:53;18.10;49.60
9425;DHT22;17139;52.140;11.636;2023-05-23T07:59:20;17.90;50.10
9425;DHT22;17139;52.140;11.636;2023-05-23T08:01:47;17.80;50.30
9425;DHT22;17139;52.140;11.636;2023-05-23T08:04:17;18.60;50.40
9425;DHT22;17139;52.140;11.636;2023-05-23T08:06:44;18.30;49.70
9425;DHT22;17139;52.140;11.636;2023-05-23T08:09:12;18.50;50.10
9425;DHT22;17139;52.140;11.636;2023-05-23T08:11:40;18.50;49.80
9425;DHT22;17139;52.140;11.636;2023-05-23T08:14:07;18.50;49.80
9425;DHT22;17139;52.140;11.636;2023-05-23T08:16:34;18.50;49.80
9425;DHT22;17139;52.140;11.636;2023-05-23T08:19:02;18.60;49.90
9425;DHT22;17139;52.140;11.636;2023-05-23T08:21:30;18.60;49.80
9425;DHT22;17139;52.140;11.636;2023-05-23T08:23:58;18.60;49.80
9425;DHT22;17139;52.140;11.636;2023-05-23T08:26:25;18.50;49.80
9425;DHT22;17139;52.140;11.636;2023-05-23T08:28:59;19.10;49.70
9425;DHT22;17139;52.140;11.636;2023-05-23T08:31:27;19.60;49.10
9425;DHT22;17139;52.140;11.636;2023-05-23T08:33:54;19.00;49.10
9425;DHT22;17139;52.140;11.636;2023-05-23T08:36:21;18.70;49.50
9425;DHT22;17139;52.140;11.636;2023-05-23T08:38:50;18.50;49.80
9425;DHT22;17139;52.140;11.636;2023-05-23T08:41:19;18.60;49.90
9425;DHT22;17139;52.140;11.636;2023-05-23T08:43:46;18.60;49.90
9425;DHT22;17139;52.140;11.636;2023-05-23T08:46:14;18.60;49.90
9425;DHT22;17139;52.140;11.636;2023-05-23T08:48:42;19.60;49.60
9425;DHT22;17139;52.140;11.636;2023-05-23T08:51:09;19.30;49.10
9425;DHT22;17139;52.140;11.636;2023-05-23T08:53:41;19.20;49.40
9425;DHT22;17139;52.140;11.636;2023-05-23T08:56:10;19.20;49.60
9425;DHT22;17139;52.140;11.636;2023-05-23T08:58:38;19.20;49.50
9425;DHT22;17139;52.140;11.636;2023-05-23T09:01:06;19.30;49.50
9425;DHT22;17139;52.140;11.636;2023-05-23T09:03:35;19.30;49.40
9425;DHT22;17139;52.140;11.636;2023-05-23T09:06:02;19.70;49.00
9425;DHT22;17139;52.140;11.636;2023-05-23T09:08:30;19.40;48.80
9425;DHT22;17139;52.140;11.636;2023-05-23T09:10:57;19.30;49.50
9425;DHT22;17139;52.140;11.636;2023-05-23T09:13:28;18.90;49.50
9425;DHT22;17139;52.140;11.636;2023-05-23T09:16:02;18.50;49.80
9425;DHT22;17139;52.140;11.636;2023-05-23T09:18:33;18.30;50.40
9425;DHT22;17139;52.140;11.636;2023-05-23T09:21:01;18.20;50.50
9425;DHT22;17139;52.140;11.636;2023-05-23T09:23:29;18.20;50.50
9425;DHT22;17139;52.140;11.636;2023-05-23T09:26:01;18.20;50.60
9425;DHT22;17139;52.140;11.636;2023-05-23T09:28:30;18.30;50.70
9425;DHT22;17139;52.140;11.636;2023-05-23T09:30:58;18.70;51.00
9425;DHT22;17139;52.140;11.636;2023-05-23T09:33:35;18.80;50.20
9425;DHT22;17139;52.140;11.636;2023-05-23T09:36:03;18.90;50.20
9425;DHT22;17139;52.140;11.636;2023-05-23T09:38:31;18.90;50.10
9425;DHT22;17139;52.140;11.636;2023-05-23T09:40:58;18.80;50.10
9425;DHT22;17139;52.140;11.636;2023-05-23T09:43:27;18.70;50.10
9425;DHT22;17139;52.140;11.636;2023-05-23T09:46:00;18.70;51.00
9425;DHT22;17139;52.140;11.636;2023-05-23T09:48:28;18.80;51.10
9425;DHT22;17139;52.140;11.636;2023-05-23T09:50:55;18.40;51.30
9425;DHT22;17139;52.140;11.636;2023-05-23T09:53:22;18.20;50.90
9425;DHT22;17139;52.140;11.636;2023-05-23T09:55:50;18.10;51.30
9425;DHT22;17139;52.140;11.636;2023-05-23T09:58:19;18.00;51.20
9425;DHT22;17139;52.140;11.636;2023-05-23T10:00:49;18.00;51.10
9425;DHT22;17139;52.140;11.636;2023-05-23T10:03:23;18.20;51.60
9425;DHT22;17139;52.140;11.636;2023-05-23T10:05:56;18.30;51.60
9425;DHT22;17139;52.140;11.636;2023-05-23T10:08:31;18.10;51.10
9425;DHT22;17139;52.140;11.636;2023-05-23T10:14:15;17.80;51.20
9425;DHT22;17139;52.140;11.636;2023-05-23T10:16:51;17.60;51.50
9425;DHT22;17139;52.140;11.636;2023-05-23T10:19:24;17.60;51.70
9425;DHT22;17139;52.140;11.636;2023-05-23T10:21:57;18.10;52.90
9425;DHT22;17139;52.140;11.636;2023-05-23T10:24:25;17.90;51.80
9425;DHT22;17139;52.140;11.636;2023-05-23T10:26:53;17.60;51.80
9425;DHT22;17139;52.140;11.636;2023-05-23T10:29:21;18.20;53.20
9425;DHT22;17139;52.140;11.636;2023-05-23T10:31:49;17.80;52.00
9425;DHT22;17139;52.140;11.636;2023-05-23T10:34:24;17.50;52.20
9425;DHT22;17139;52.140;11.636;2023-05-23T10:36:59;17.20;52.50
9425;DHT22;17139;52.140;11.636;2023-05-23T10:39:36;16.90;52.70
9425;DHT22;17139;52.140;11.636;2023-05-23T10:42:12;16.70;52.80
9425;DHT22;17139;52.140;11.636;2023-05-23T10:44:41;16.50;52.90
9425;DHT22;17139;52.140;11.636;2023-05-23T10:47:08;16.90;54.60
9425;DHT22;17139;52.140;11.636;2023-05-23T10:49:39;17.50;55.20
9425;DHT22;17139;52.140;11.636;2023-05-23T10:52:07;17.00;53.40
9425;DHT22;17139;52.140;11.636;2023-05-23T10:54:35;16.70;53.40
9425;DHT22;17139;52.140;11.636;2023-05-23T10:57:03;16.50;53.50
9425;DHT22;17139;52.140;11.636;2023-05-23T10:59:30;16.40;53.60
9425;DHT22;17139;52.140;11.636;2023-05-23T11:01:59;16.20;53.40
9425;DHT22;17139;52.140;11.636;2023-05-23T11:04:27;16.20;53.50
9425;DHT22;17139;52.140;11.636;2023-05-23T11:06:56;16.90;55.40
9425;DHT22;17139;52.140;11.636;2023-05-23T11:09:24;17.50;55.40
9425;DHT22;17139;52.140;11.636;2023-05-23T11:11:52;17.10;53.80
9425;DHT22;17139;52.140;11.636;2023-05-23T11:14:19;16.70;53.80
9425;DHT22;17139;52.140;11.636;2023-05-23T11:16:47;16.40;53.90
9425;DHT22;17139;52.140;11.636;2023-05-23T11:19:21;16.30;54.00
9425;DHT22;17139;52.140;11.636;2023-05-23T11:21:53;16.30;54.00
9425;DHT22;17139;52.140;11.636;2023-05-23T11:24:22;16.50;55.20
9425;DHT22;17139;52.140;11.636;2023-05-23T11:26:53;16.30;53.80
9425;DHT22;17139;52.140;11.636;2023-05-23T11:29:25;16.20;53.90
9425;DHT22;17139;52.140;11.636;2023-05-23T11:31:53;16.90;55.80
9425;DHT22;17139;52.140;11.636;2023-05-23T11:34:20;16.60;53.90
9425;DHT22;17139;52.140;11.636;2023-05-23T11:36:52;16.30;53.70
9425;DHT22;17139;52.140;11.636;2023-05-23T11:39:21;16.20;54.00
9425;DHT22;17139;52.140;11.636;2023-05-23T11:41:58;16.10;54.20
9425;DHT22;17139;52.140;11.636;2023-05-23T11:44:25;16.10;54.00
9425;DHT22;17139;52.140;11.636;2023-05-23T11:47:00;16.00;54.10
9425;DHT22;17139;52.140;11.636;2023-05-23T11:49:28;16.40;54.90
9425;DHT22;17139;52.140;11.636;2023-05-23T11:51:56;17.10;54.80
9425;DHT22;17139;52.140;11.636;2023-05-23T11:54:25;16.90;53.50
9425;DHT22;17139;52.140;11.636;2023-05-23T11:56:52;16.60;53.50
9425;DHT22;17139;52.140;11.636;2023-05-23T11:59:20;16.30;53.80
9425;DHT22;17139;52.140;11.636;2023-05-23T12:01:48;16.30;54.00
9425;DHT22;17139;52.140;11.636;2023-05-23T12:04:15;16.30;53.90
9425;DHT22;17139;52.140;11.636;2023-05-23T12:06:44;16.30;54.00
9425;DHT22;17139;52.140;11.636;2023-05-23T12:09:12;17.00;54.30
9425;DHT22;17139;52.140;11.636;2023-05-23T12:11:41;17.50;53.80
9425;DHT22;17139;52.140;11.636;2023-05-23T12:14:13;17.10;53.20
9425;DHT22;17139;52.140;11.636;2023-05-23T12:16:42;16.70;53.30
9425;DHT22;17139;52.140;11.636;2023-05-23T12:19:10;16.40;53.60
9425;DHT22;17139;52.140;11.636;2023-05-23T12:21:44;16.20;53.90
9425;DHT22;17139;52.140;11.636;2023-05-23T12:24:15;16.10;54.00
9425;DHT22;17139;52.140;11.636;2023-05-23T12:26:51;16.10;54.60
9425;DHT22;17139;52.140;11.636;2023-05-23T12:29:19;16.00;53.90
9425;DHT22;17139;52.140;11.636;2023-05-23T12:31:57;16.20;54.40
9425;DHT22;17139;52.140;11.636;2023-05-23T12:34:26;16.00;53.50
9425;DHT22;17139;52.140;11.636;2023-05-23T12:36:55;15.80;53.80
9425;DHT22;17139;52.140;11.636;2023-05-23T12:39:26;15.80;53.80
9425;DHT22;17139;52.140;11.636;2023-05-23T12:42:05;15.90;53.90
9425;DHT22;17139;52.140;11.636;2023-05-23T12:44:33;15.90;53.80
9425;DHT22;17139;52.140;11.636;2023-05-23T12:47:00;15.90;53.60
9425;DHT22;17139;52.140;11.636;2023-05-23T12:49:27;15.80;53.60
9425;DHT22;17139;52.140;11.636;2023-05-23T12:51:54;16.40;54.10
9425;DHT22;17139;52.140;11.636;2023-05-23T12:54:21;16.10;53.30
9425;DHT22;17139;52.140;11.636;2023-05-23T12:56:48;15.80;53.60
9425;DHT22;17139;52.140;11.636;2023-05-23T12:59:16;15.60;53.80
9425;DHT22;17139;52.140;11.636;2023-05-23T13:01:44;15.50;54.10
9425;DHT22;17139;52.140;11.636;2023-05-23T13:04:11;15.40;54.10
9425;DHT22;17139;52.140;11.636;2023-05-23T13:06:38;15.40;54.20
9425;DHT22;17139;52.140;11.636;2023-05-23T13:09:05;16.00;54.90
9425;DHT22;17139;52.140;11.636;2023-05-23T13:11:32;16.50;54.30
9425;DHT22;17139;52.140;11.636;2023-05-23T13:13:59;16.20;53.30
9425;DHT22;17139;52.140;11.636;2023-05-23T13:16:28;15.90;53.60
9425;DHT22;17139;52.140;11.636;2023-05-23T13:18:57;15.70;53.70
9425;DHT22;17139;52.140;11.636;2023-05-23T13:21:24;15.50;54.00
9425;DHT22;17139;52.140;11.636;2023-05-23T13:23:52;15.30;54.00
9425;DHT22;17139;52.140;11.636;2023-05-23T13:26:19;15.20;54.30
9425;DHT22;17139;52.140;11.636;2023-05-23T13:28:46;15.10;54.00
9425;DHT22;17139;52.140;11.636;2023-05-23T13:31:13;15.00;54.10
9425;DHT22;17139;52.140;11.636;2023-05-23T13:33:41;15.80;54.80
9425;DHT22;17139;52.140;11.636;2023-05-23T13:36:08;15.50;53.70
9425;DHT22;17139;52.140;11.636;2023-05-23T13:38:36;15.20;53.90
9425;DHT22;17139;52.140;11.636;2023-05-23T13:41:03;14.90;54.00
9425;DHT22;17139;52.140;11.636;2023-05-23T13:43:31;14.70;54.40
9425;DHT22;17139;52.140;11.636;2023-05-23T13:45:58;14.50;54.30
9425;DHT22;17139;52.140;11.636;2023-05-23T13:48:26;14.40;54.50
9425;DHT22;17139;52.140;11.636;2023-05-23T13:50:55;14.70;55.50
9425;DHT22;17139;52.140;11.636;2023-05-23T13:53:22;15.30;55.00
9425;DHT22;17139;52.140;11.636;2023-05-23T13:55:49;14.90;54.00
9425;DHT22;17139;52.140;11.636;2023-05-23T13:58:16;14.60;54.10
9425;DHT22;17139;52.140;11.636;2023-05-23T14:00:43;14.40;54.40
9425;DHT22;17139;52.140;11.636;2023-05-23T14:03:10;14.20;54.50
9425;DHT22;17139;52.140;11.636;2023-05-23T14:05:37;14.20;54.60
9425;DHT22;17139;52.140;11.636;2023-05-23T14:08:06;14.10;54.80
9425;DHT22;17139;52.140;11.636;2023-05-23T14:10:33;14.30;55.10
9425;DHT22;17139;52.140;11.636;2023-05-23T14:13:00;14.10;55.10
9425;DHT22;17139;52.140;11.636;2023-05-23T14:15:27;13.90;54.90
9425;DHT22;17139;52.140;11.636;2023-05-23T14:17:54;13.70;54.70
9425;DHT22;17139;52.140;11.636;2023-05-23T14:20:21;13.50;54.60
9425;DHT22;17139;52.140;11.636;2023-05-23T14:22:49;13.50;54.60
9425;DHT22;17139;52.140;11.636;2023-05-23T14:25:19;13.50;54.70
9425;DHT22;17139;52.140;11.636;2023-05-23T14:27:46;13.50;54.70
9425;DHT22;17139;52.140;11.636;2023-05-23T14:30:13;13.50;54.60
9425;DHT22;17139;52.140;11.636;2023-05-23T14:32:40;13.40;54.50
9425;DHT22;17139;52.140;11.636;2023-05-23T14:35:09;13.90;54.90
9425;DHT22;17139;52.140;11.636;2023-05-23T14:37:36;14.40;54.70
9425;DHT22;17139;52.140;11.636;2023-05-23T14:40:04;14.20;53.80
9425;DHT22;17139;52.140;11.636;2023-05-23T14:42:33;13.90;54.10
9425;DHT22;17139;52.140;11.636;2023-05-23T14:45:00;13.70;54.20
9425;DHT22;17139;52.140;11.636;2023-05-23T14:47:27;13.60;54.30
9425;DHT22;17139;52.140;11.636;2023-05-23T14:49:55;13.50;54.30
9425;DHT22;17139;52.140;11.636;2023-05-23T14:52:22;13.50;54.60
9425;DHT22;17139;52.140;11.636;2023-05-23T14:54:49;14.00;54.40
9425;DHT22;17139;52.140;11.636;2023-05-23T14:57:16;14.50;53.70
9425;DHT22;17139;52.140;11.636;2023-05-23T14:59:44;14.20;53.30
9425;DHT22;17139;52.140;11.636;2023-05-23T15:02:11;14.00;53.60
9425;DHT22;17139;52.140;11.636;2023-05-23T15:04:39;13.80;53.80
9425;DHT22;17139;52.140;11.636;2023-05-23T15:07:06;13.70;53.90
9425;DHT22;17139;52.140;11.636;2023-05-23T15:09:33;13.60;54.10
9425;DHT22;17139;52.140;11.636;2023-05-23T15:12:00;13.60;54.10
9425;DHT22;17139;52.140;11.636;2023-05-23T15:14:29;13.60;54.10
9425;DHT22;17139;52.140;11.636;2023-05-23T15:16:58;13.60;54.10
9425;DHT22;17139;52.140;11.636;2023-05-23T15:19:32;14.30;54.30
9425;DHT22;17139;52.140;11.636;2023-05-23T15:21:59;14.10;53.50
9425;DHT22;17139;52.140;11.636;2023-05-23T15:24:26;13.90;53.70
9425;DHT22;17139;52.140;11.636;2023-05-23T15:26:53;13.80;53.80
9425;DHT22;17139;52.140;11.636;2023-05-23T15:29:20;13.80;54.00
9425;DHT22;17139;52.140;11.636;2023-05-23T15:31:49;14.10;54.40
9425;DHT22;17139;52.140;11.636;2023-05-23T15:34:18;14.20;54.00
9425;DHT22;17139;52.140;11.636;2023-05-23T15:36:45;14.60;53.90
9425;DHT22;17139;52.140;11.636;2023-05-23T15:39:12;14.50;53.30